createdAt,value
2023-05-06T00:00:52.757Z,101305.16
2023-05-06T00:03:20.381Z,101317.28
2023-05-06T00:05:49.586Z,101317.38
2023-05-06T00:08:17.290Z,101323.88
2023-05-06T00:10:44.826Z,101311.69
2023-05-06T00:13:12.879Z,101307.25
2023-05-06T00:15:40.915Z,101309.56
2023-05-06T00:18:09.700Z,101312.44
2023-05-06T00:20:37.113Z,101305.59
2023-05-06T00:23:04.610Z,101301.56
2023-05-06T00:25:32.065Z,101303.69
2023-05-06T00:27:59.493Z,101290.53
2023-05-06T00:30:27.033Z,101299.69
2023-05-06T00:32:54.540Z,101303.22
2023-05-06T00:35:23.459Z,101300.13
2023-05-06T00:37:58.335Z,101295.78
2023-05-06T00:40:25.762Z,101288.03
2023-05-06T00:42:53.155Z,101287.09
2023-05-06T00:45:20.649Z,101287.38
2023-05-06T00:47:48.092Z,101273.44
2023-05-06T00:50:15.814Z,101270.28
2023-05-06T00:52:44.652Z,101266.69
2023-05-06T00:55:12.146Z,101267.25
2023-05-06T00:57:40.567Z,101253.44
2023-05-06T01:00:09.138Z,101258.94
2023-05-06T01:02:46.288Z,101266.19
2023-05-06T01:05:16.133Z,101253.16
2023-05-06T01:07:48.413Z,101252.25
2023-05-06T01:10:25.267Z,101250.09
2023-05-06T01:13:00.327Z,101248.19
2023-05-06T01:15:33.962Z,101240.34
2023-05-06T01:18:05.953Z,101245.88
2023-05-06T01:20:34.539Z,101250.31
2023-05-06T01:23:08.290Z,101241.44
2023-05-06T01:25:35.849Z,101246.47
2023-05-06T01:28:03.246Z,101240.53
2023-05-06T01:30:47.987Z,101236.69
2023-05-06T01:33:22.642Z,101256.25
2023-05-06T01:35:57.822Z,101253.72
2023-05-06T01:38:32.851Z,101257.97
2023-05-06T01:41:02.297Z,101251.84
2023-05-06T01:43:33.949Z,101255.78
2023-05-06T01:46:02.323Z,101245.75
2023-05-06T01:48:32.942Z,101249.19
2023-05-06T01:51:00.455Z,101255.09
2023-05-06T01:53:29.199Z,101249.97
2023-05-06T01:55:56.880Z,101256.53
2023-05-06T01:58:24.284Z,101258.25
2023-05-06T02:00:51.673Z,101256.06
2023-05-06T02:03:19.154Z,101250.50
2023-05-06T02:05:46.858Z,101247.66
2023-05-06T02:08:14.334Z,101248.13
2023-05-06T02:10:43.024Z,101254.69
2023-05-06T02:13:12.235Z,101253.28
2023-05-06T02:15:39.750Z,101256.19
2023-05-06T02:18:07.264Z,101244.72
2023-05-06T02:20:34.664Z,101248.41
2023-05-06T02:23:02.053Z,101252.88
2023-05-06T02:25:30.581Z,101253.19
2023-05-06T02:27:59.335Z,101264.09
2023-05-06T02:30:26.746Z,101258.38
2023-05-06T02:32:54.169Z,101256.16
2023-05-06T02:35:21.769Z,101252.34
2023-05-06T02:37:49.229Z,101255.44
2023-05-06T02:40:16.782Z,101256.34
2023-05-06T02:42:44.183Z,101258.34
2023-05-06T02:45:13.360Z,101254.72
2023-05-06T02:47:40.958Z,101260.72
2023-05-06T02:50:08.876Z,101256.31
2023-05-06T02:52:36.407Z,101249.88
2023-05-06T02:55:04.172Z,101246.22
2023-05-06T02:57:31.562Z,101232.81
2023-05-06T02:59:59.001Z,101229.28
2023-05-06T03:02:27.795Z,101237.75
2023-05-06T03:04:55.249Z,101229.47
2023-05-06T03:07:22.614Z,101229.56
2023-05-06T03:09:50.027Z,101238.88
2023-05-06T03:12:17.490Z,101238.06
2023-05-06T03:14:44.895Z,101247.41
2023-05-06T03:17:12.305Z,101261.47
2023-05-06T03:19:41.047Z,101261.03
2023-05-06T03:22:08.426Z,101266.94
2023-05-06T03:24:35.841Z,101262.94
2023-05-06T03:27:03.223Z,101266.75
2023-05-06T03:29:30.739Z,101266.31
2023-05-06T03:31:58.222Z,101265.94
2023-05-06T03:34:25.672Z,101255.03
2023-05-06T03:36:54.410Z,101248.81
2023-05-06T03:39:21.902Z,101248.84
2023-05-06T03:41:49.347Z,101245.44
2023-05-06T03:44:16.937Z,101249.25
2023-05-06T03:46:44.367Z,101240.09
2023-05-06T03:49:11.848Z,101231.69
2023-05-06T03:51:39.298Z,101241.59
2023-05-06T03:54:08.108Z,101230.75
2023-05-06T03:56:36.093Z,101232.78
2023-05-06T03:59:03.887Z,101244.41
2023-05-06T04:01:31.492Z,101240.69
2023-05-06T04:03:58.931Z,101225.56
2023-05-06T04:06:26.930Z,101233.66
2023-05-06T04:08:54.328Z,101222.00
2023-05-06T04:11:23.044Z,101231.38
2023-05-06T04:13:50.426Z,101230.41
2023-05-06T04:16:17.927Z,101251.91
2023-05-06T04:18:46.116Z,101233.72
2023-05-06T04:21:13.558Z,101248.00
2023-05-06T04:23:41.510Z,101235.94
2023-05-06T04:26:09.067Z,101247.13
2023-05-06T04:28:38.116Z,101250.00
2023-05-06T04:31:08.411Z,101250.69
2023-05-06T04:33:36.096Z,101249.34
2023-05-06T04:36:03.576Z,101257.22
2023-05-06T04:38:32.143Z,101262.13
2023-05-06T04:40:59.730Z,101257.94
2023-05-06T04:43:27.656Z,101258.22
2023-05-06T04:45:56.648Z,101266.47
2023-05-06T04:48:24.204Z,101266.88
2023-05-06T04:50:51.931Z,101271.84
2023-05-06T04:53:19.305Z,101262.25
2023-05-06T04:55:46.702Z,101267.03
2023-05-06T04:58:14.516Z,101274.97
2023-05-06T05:00:42.102Z,101272.59
2023-05-06T05:03:10.900Z,101273.06
2023-05-06T05:05:38.381Z,101286.97
2023-05-06T05:08:06.353Z,101285.06
2023-05-06T05:10:33.785Z,101290.03
2023-05-06T05:16:41.787Z,101295.66
2023-05-06T05:19:10.572Z,101287.19
2023-05-06T05:21:37.992Z,101296.81
2023-05-06T05:24:05.769Z,101295.88
2023-05-06T05:26:33.158Z,101294.81
2023-05-06T05:29:00.556Z,101305.94
2023-05-06T05:31:27.989Z,101304.09
2023-05-06T05:33:55.531Z,101301.09
2023-05-06T05:36:24.495Z,101293.81
2023-05-06T05:38:51.887Z,101291.47
2023-05-06T05:41:19.300Z,101291.63
2023-05-06T05:43:46.696Z,101295.69
2023-05-06T05:46:14.296Z,101295.59
2023-05-06T05:48:41.946Z,101291.09
2023-05-06T05:51:09.610Z,101300.56
2023-05-06T05:53:38.346Z,101298.75
2023-05-06T05:56:06.476Z,101287.63
2023-05-06T05:58:33.896Z,101291.44
2023-05-06T06:01:01.625Z,101298.31
2023-05-06T06:03:29.194Z,101303.38
2023-05-06T06:05:56.672Z,101302.03
2023-05-06T06:08:24.113Z,101298.69
2023-05-06T06:10:52.859Z,101314.78
2023-05-06T06:13:20.329Z,101303.09
2023-05-06T06:15:47.885Z,101307.03
2023-05-06T06:18:15.297Z,101320.63
2023-05-06T06:20:42.803Z,101323.03
2023-05-06T06:23:11.072Z,101332.94
2023-05-06T06:25:38.505Z,101322.06
2023-05-06T06:28:07.424Z,101318.50
2023-05-06T06:30:34.847Z,101318.97
2023-05-06T06:33:02.286Z,101314.63
2023-05-06T06:35:29.783Z,101327.19
2023-05-06T06:37:57.219Z,101318.81
2023-05-06T06:40:24.689Z,101321.59
2023-05-06T06:42:52.121Z,101313.06
2023-05-06T06:45:21.274Z,101323.16
2023-05-06T06:47:48.765Z,101324.84
2023-05-06T06:50:16.252Z,101326.25
2023-05-06T06:52:43.651Z,101321.09
2023-05-06T06:55:11.413Z,101319.28
2023-05-06T06:57:40.816Z,101326.28
2023-05-06T07:00:09.388Z,101317.66
2023-05-06T07:02:38.150Z,101323.78
2023-05-06T07:05:06.222Z,101310.16
2023-05-06T07:07:33.660Z,101324.75
2023-05-06T07:10:01.011Z,101335.28
2023-05-06T07:12:28.511Z,101327.69
2023-05-06T07:14:55.880Z,101329.53
2023-05-06T07:17:23.492Z,101328.00
2023-05-06T07:19:52.315Z,101325.44
2023-05-06T07:22:20.293Z,101335.44
2023-05-06T07:24:47.704Z,101325.19
2023-05-06T07:27:15.112Z,101331.13
2023-05-06T07:29:42.496Z,101327.59
2023-05-06T07:32:10.346Z,101336.91
2023-05-06T07:34:37.865Z,101337.84
2023-05-06T07:37:07.967Z,101337.88
2023-05-06T07:39:35.881Z,101342.28
2023-05-06T07:42:03.319Z,101337.97
2023-05-06T07:44:30.712Z,101344.66
2023-05-06T07:46:58.307Z,101341.16
2023-05-06T07:49:28.699Z,101348.06
2023-05-06T07:51:57.372Z,101342.50
2023-05-06T07:54:27.798Z,101342.84
2023-05-06T07:56:55.856Z,101352.19
2023-05-06T07:59:23.366Z,101341.19
2023-05-06T08:01:50.788Z,101345.72
2023-05-06T08:04:18.241Z,101352.78
2023-05-06T08:06:45.815Z,101361.06
2023-05-06T08:09:22.073Z,101364.13
2023-05-06T08:11:51.683Z,101358.84
2023-05-06T08:14:19.118Z,101361.91
2023-05-06T08:16:46.758Z,101356.16
2023-05-06T08:19:14.226Z,101368.53
2023-05-06T08:21:41.624Z,101367.69
2023-05-06T08:24:10.519Z,101363.78
2023-05-06T08:26:37.946Z,101373.28
2023-05-06T08:29:08.036Z,101368.28
2023-05-06T08:31:35.543Z,101363.53
2023-05-06T08:34:02.970Z,101378.22
2023-05-06T08:36:30.763Z,101374.03
2023-05-06T08:38:58.129Z,101376.63
2023-05-06T08:41:27.283Z,101381.69
2023-05-06T08:43:55.736Z,101385.38
2023-05-06T08:46:24.702Z,101391.53
2023-05-06T08:48:52.329Z,101393.66
2023-05-06T08:51:20.063Z,101384.56
2023-05-06T08:53:49.492Z,101393.56
2023-05-06T08:56:17.481Z,101397.53
2023-05-06T08:58:46.885Z,101395.59
2023-05-06T09:01:15.725Z,101393.28
2023-05-06T09:03:45.057Z,101395.97
2023-05-06T09:06:12.494Z,101404.78
2023-05-06T09:08:40.015Z,101411.97
2023-05-06T09:11:21.309Z,101404.06
2023-05-06T09:13:48.920Z,101410.25
2023-05-06T09:16:29.733Z,101405.47
2023-05-06T09:18:59.817Z,101412.72
2023-05-06T09:21:31.276Z,101414.03
2023-05-06T09:23:59.477Z,101426.94
2023-05-06T09:26:28.154Z,101420.56
2023-05-06T09:28:56.796Z,101417.94
2023-05-06T09:31:24.559Z,101413.56
2023-05-06T09:33:52.210Z,101414.31
2023-05-06T09:36:21.894Z,101413.25
2023-05-06T09:38:49.292Z,101400.25
2023-05-06T09:41:20.845Z,101408.06
2023-05-06T09:43:49.214Z,101409.19
2023-05-06T09:46:17.308Z,101408.78
2023-05-06T09:48:45.941Z,101417.78
2023-05-06T09:51:14.030Z,101405.78
2023-05-06T09:53:45.250Z,101408.56
2023-05-06T09:56:16.199Z,101411.09
2023-05-06T09:58:44.315Z,101422.22
2023-05-06T10:01:19.304Z,101420.09
2023-05-06T10:03:54.696Z,101429.69
2023-05-06T10:06:24.150Z,101433.44
2023-05-06T10:08:55.103Z,101429.44
2023-05-06T10:11:23.416Z,101427.22
2023-05-06T10:13:51.347Z,101430.19
2023-05-06T10:16:20.061Z,101443.72
2023-05-06T10:18:49.823Z,101446.13
2023-05-06T10:21:22.844Z,101441.28
2023-05-06T10:23:57.985Z,101440.06
2023-05-06T10:26:28.305Z,101434.75
2023-05-06T10:28:55.739Z,101441.16
2023-05-06T10:31:23.187Z,101440.13
2023-05-06T10:33:53.922Z,101442.28
2023-05-06T10:36:25.249Z,101438.31
2023-05-06T10:38:56.645Z,101435.25
2023-05-06T10:41:27.854Z,101439.75
2023-05-06T10:43:57.602Z,101444.31
2023-05-06T10:46:26.158Z,101442.47
2023-05-06T10:49:19.980Z,101455.31
2023-05-06T10:51:48.896Z,101453.00
2023-05-06T10:54:24.684Z,101455.88
2023-05-06T10:57:11.505Z,101454.41
2023-05-06T10:59:46.583Z,101444.03
2023-05-06T11:02:15.273Z,101436.25
2023-05-06T11:04:43.178Z,101440.53
2023-05-06T11:07:12.346Z,101439.63
2023-05-06T11:09:56.997Z,101460.56
2023-05-06T11:12:45.779Z,101444.91
2023-05-06T11:15:27.052Z,101456.09
2023-05-06T11:17:56.254Z,101472.19
2023-05-06T11:20:25.336Z,101464.63
2023-05-06T11:22:53.471Z,101469.34
2023-05-06T11:25:43.567Z,101472.44
2023-05-06T11:28:12.484Z,101468.13
2023-05-06T11:30:43.156Z,101469.44
2023-05-06T11:33:18.382Z,101475.78
2023-05-06T11:35:46.245Z,101476.16
2023-05-06T11:38:13.709Z,101472.81
2023-05-06T11:40:43.493Z,101478.63
2023-05-06T11:43:12.208Z,101489.34
2023-05-06T11:45:44.108Z,101479.72
2023-05-06T11:48:15.293Z,101498.63
2023-05-06T11:50:47.070Z,101499.41
2023-05-06T11:53:16.409Z,101504.06
2023-05-06T11:55:45.611Z,101498.75
2023-05-06T11:58:17.369Z,101503.38
2023-05-06T12:00:51.375Z,101500.81
2023-05-06T12:03:19.436Z,101501.00
2023-05-06T12:05:47.966Z,101512.63
2023-05-06T12:08:26.722Z,101512.75
2023-05-06T12:10:57.186Z,101515.28
2023-05-06T12:13:24.814Z,101521.00
2023-05-06T12:15:54.674Z,101522.25
2023-05-06T12:18:22.907Z,101532.38
2023-05-06T12:20:50.401Z,101523.56
2023-05-06T12:23:17.941Z,101531.50
2023-05-06T12:25:45.771Z,101537.25
2023-05-06T12:28:17.891Z,101543.31
2023-05-06T12:30:45.887Z,101539.69
2023-05-06T12:33:13.853Z,101548.38
2023-05-06T12:35:41.925Z,101550.97
2023-05-06T12:38:10.860Z,101554.81
2023-05-06T12:40:38.614Z,101555.44
2023-05-06T12:43:06.177Z,101560.66
2023-05-06T12:45:35.019Z,101562.91
2023-05-06T12:48:05.117Z,101561.91
2023-05-06T12:50:34.850Z,101567.94
2023-05-06T12:53:02.952Z,101566.00
2023-05-06T12:55:31.491Z,101577.00
2023-05-06T12:57:59.214Z,101572.75
2023-05-06T13:00:27.212Z,101577.34
2023-05-06T13:02:57.332Z,101576.94
2023-05-06T13:05:24.843Z,101577.78
2023-05-06T13:07:53.161Z,101575.78
2023-05-06T13:10:20.653Z,101567.31
2023-05-06T13:12:48.091Z,101576.41
2023-05-06T13:15:15.624Z,101571.69
2023-05-06T13:17:43.075Z,101568.47
2023-05-06T13:20:14.182Z,101573.56
2023-05-06T13:22:53.819Z,101569.69
2023-05-06T13:25:22.656Z,101577.31
2023-05-06T13:27:50.203Z,101581.28
2023-05-06T13:30:17.783Z,101579.13
2023-05-06T13:32:46.202Z,101581.44
2023-05-06T13:35:15.321Z,101575.00
2023-05-06T13:37:42.747Z,101581.25
2023-05-06T13:40:11.632Z,101580.13
2023-05-06T13:42:39.369Z,101577.19
2023-05-06T13:45:08.088Z,101573.22
2023-05-06T13:47:35.498Z,101573.28
2023-05-06T13:50:03.767Z,101568.31
2023-05-06T13:52:32.676Z,101567.34
2023-05-06T13:55:00.334Z,101574.97
2023-05-06T13:57:27.764Z,101578.38
2023-05-06T13:59:55.151Z,101576.25
2023-05-06T14:02:22.575Z,101567.50
2023-05-06T14:04:50.080Z,101566.19
2023-05-06T14:07:17.509Z,101569.41
2023-05-06T14:09:46.220Z,101563.25
2023-05-06T14:12:13.865Z,101583.06
2023-05-06T14:14:41.387Z,101584.66
2023-05-06T14:17:08.805Z,101575.59
2023-05-06T14:19:36.229Z,101574.50
2023-05-06T14:22:03.748Z,101573.03
2023-05-06T14:24:31.133Z,101566.97
2023-05-06T14:26:59.944Z,101568.25
2023-05-06T14:29:27.372Z,101559.13
2023-05-06T14:31:54.813Z,101578.31
2023-05-06T14:34:22.260Z,101575.16
2023-05-06T14:36:49.675Z,101579.63
2023-05-06T14:39:17.095Z,101572.31
2023-05-06T14:41:44.542Z,101570.88
2023-05-06T14:44:13.276Z,101581.28
2023-05-06T14:46:40.729Z,101590.25
2023-05-06T14:49:08.177Z,101584.16
2023-05-06T14:51:35.550Z,101578.13
2023-05-06T14:54:03.001Z,101588.00
2023-05-06T14:56:30.504Z,101591.91
2023-05-06T14:58:57.918Z,101597.28
2023-05-06T15:01:26.753Z,101596.84
2023-05-06T15:03:54.193Z,101602.41
2023-05-06T15:06:21.619Z,101607.53
2023-05-06T15:08:49.160Z,101605.88
2023-05-06T15:11:16.549Z,101602.81
2023-05-06T15:13:43.953Z,101602.47
2023-05-06T15:16:11.718Z,101610.28
2023-05-06T15:18:41.818Z,101616.09
2023-05-06T15:21:09.337Z,101617.69
2023-05-06T15:23:37.509Z,101616.50
2023-05-06T15:26:05.463Z,101611.94
2023-05-06T15:28:32.938Z,101614.47
2023-05-06T15:31:00.341Z,101618.88
2023-05-06T15:33:27.778Z,101619.19
2023-05-06T15:35:56.563Z,101613.25
2023-05-06T15:38:24.095Z,101610.94
2023-05-06T15:40:52.703Z,101614.31
2023-05-06T15:43:24.357Z,101610.09
2023-05-06T15:45:52.422Z,101611.28
2023-05-06T15:48:19.876Z,101607.72
2023-05-06T15:50:47.298Z,101612.94
2023-05-06T15:53:15.994Z,101613.63
2023-05-06T15:55:46.758Z,101616.31
2023-05-06T15:58:20.181Z,101610.66
2023-05-06T16:00:47.683Z,101618.75
2023-05-06T16:03:15.346Z,101624.09
2023-05-06T16:05:42.878Z,101623.41
2023-05-06T16:08:10.503Z,101618.47
2023-05-06T16:10:39.252Z,101617.91
2023-05-06T16:13:06.744Z,101616.09
2023-05-06T16:15:35.360Z,101617.06
2023-05-06T16:18:02.990Z,101619.06
2023-05-06T16:20:32.058Z,101626.47
2023-05-06T16:22:59.633Z,101623.91
2023-05-06T16:25:27.163Z,101618.72
2023-05-06T16:27:56.011Z,101628.41
2023-05-06T16:30:23.737Z,101625.88
2023-05-06T16:32:51.235Z,101640.06
2023-05-06T16:35:19.049Z,101642.25
2023-05-06T16:37:46.552Z,101644.09
2023-05-06T16:40:15.588Z,101638.53
2023-05-06T16:42:43.035Z,101641.75
2023-05-06T16:45:12.627Z,101637.47
2023-05-06T16:47:40.206Z,101638.78
2023-05-06T16:50:08.655Z,101634.63
2023-05-06T16:52:36.517Z,101635.06
2023-05-06T16:55:04.227Z,101641.41
2023-05-06T16:57:31.666Z,101644.75
2023-05-06T16:59:59.147Z,101646.94
2023-05-06T17:02:28.010Z,101641.69
2023-05-06T17:04:55.429Z,101646.22
2023-05-06T17:07:22.869Z,101643.50
2023-05-06T17:09:50.393Z,101651.66
2023-05-06T17:12:17.787Z,101666.31
2023-05-06T17:14:45.268Z,101662.16
2023-05-06T17:17:12.640Z,101665.91
2023-05-06T17:19:41.366Z,101673.41
2023-05-06T17:22:08.974Z,101675.25
2023-05-06T17:24:36.397Z,101670.91
2023-05-06T17:27:03.838Z,101667.44
2023-05-06T17:29:31.285Z,101667.97
2023-05-06T17:31:58.708Z,101674.34
2023-05-06T17:34:26.120Z,101667.78
2023-05-06T17:36:54.840Z,101672.84
2023-05-06T17:39:22.314Z,101669.16
2023-05-06T17:41:50.334Z,101672.78
2023-05-06T17:44:18.351Z,101676.25
2023-05-06T17:46:46.405Z,101665.16
2023-05-06T17:49:13.887Z,101662.22
2023-05-06T17:51:45.146Z,101670.59
2023-05-06T17:54:13.911Z,101673.88
2023-05-06T17:56:41.402Z,101667.41
2023-05-06T17:59:08.830Z,101676.53
2023-05-06T18:01:36.411Z,101672.38
2023-05-06T18:04:03.924Z,101678.16
2023-05-06T18:06:31.849Z,101673.75
2023-05-06T18:08:59.228Z,101678.66
2023-05-06T18:11:28.032Z,101681.56
2023-05-06T18:13:55.486Z,101691.25
2023-05-06T18:16:22.949Z,101690.16
2023-05-06T18:18:50.538Z,101696.75
2023-05-06T18:21:18.079Z,101693.66
2023-05-06T18:23:46.207Z,101691.34
2023-05-06T18:26:18.757Z,101685.44
2023-05-06T18:28:53.619Z,101694.06
2023-05-06T18:31:21.453Z,101693.78
2023-05-06T18:33:48.861Z,101688.09
2023-05-06T18:36:16.247Z,101691.47
2023-05-06T18:38:43.641Z,101699.16
2023-05-06T18:41:11.346Z,101701.19
2023-05-06T18:43:38.903Z,101713.28
2023-05-06T18:46:07.714Z,101710.66
2023-05-06T18:48:35.355Z,101710.69
2023-05-06T18:51:13.278Z,101708.59
2023-05-06T18:53:41.830Z,101716.22
2023-05-06T18:56:10.074Z,101717.91
2023-05-06T18:58:39.011Z,101715.06
2023-05-06T19:01:08.990Z,101720.72
2023-05-06T19:03:36.687Z,101723.47
2023-05-06T19:06:07.547Z,101720.56
2023-05-06T19:08:35.285Z,101728.94
2023-05-06T19:11:03.308Z,101724.81
2023-05-06T19:13:30.842Z,101725.03
2023-05-06T19:15:58.280Z,101729.16
2023-05-06T19:18:27.143Z,101731.38
2023-05-06T19:20:55.824Z,101732.97
2023-05-06T19:23:23.276Z,101727.75
2023-05-06T19:25:50.800Z,101730.22
2023-05-06T19:28:18.220Z,101730.63
2023-05-06T19:30:45.724Z,101726.19
2023-05-06T19:33:13.254Z,101724.84
2023-05-06T19:35:42.062Z,101731.22
2023-05-06T19:38:10.711Z,101724.53
2023-05-06T19:40:38.361Z,101729.34
2023-05-06T19:43:05.829Z,101726.22
2023-05-06T19:45:34.587Z,101726.06
2023-05-06T19:48:04.073Z,101723.63
2023-05-06T19:50:33.126Z,101727.53
2023-05-06T19:53:01.912Z,101731.34
2023-05-06T19:55:29.353Z,101734.66
2023-05-06T19:57:57.148Z,101722.25
2023-05-06T20:00:27.221Z,101728.00
2023-05-06T20:02:55.266Z,101723.97
2023-05-06T20:05:22.764Z,101727.41
2023-05-06T20:07:50.899Z,101737.25
2023-05-06T20:10:20.660Z,101729.81
2023-05-06T20:12:48.139Z,101736.06
2023-05-06T20:15:15.745Z,101744.09
2023-05-06T20:17:43.241Z,101741.47
2023-05-06T20:20:11.886Z,101747.59
2023-05-06T20:22:40.369Z,101752.13
2023-05-06T20:25:09.495Z,101755.19
2023-05-06T20:27:39.101Z,101749.75
2023-05-06T20:30:08.022Z,101748.22
2023-05-06T20:32:35.620Z,101756.28
2023-05-06T20:35:04.286Z,101750.16
2023-05-06T20:37:31.867Z,101747.50
2023-05-06T20:39:59.304Z,101743.31
2023-05-06T20:42:26.744Z,101748.72
2023-05-06T20:44:55.588Z,101743.69
2023-05-06T20:47:23.109Z,101742.44
2023-05-06T20:49:50.934Z,101750.97
2023-05-06T20:52:18.398Z,101751.66
2023-05-06T20:54:46.200Z,101754.16
2023-05-06T20:57:15.667Z,101758.34
2023-05-06T20:59:43.306Z,101751.50
2023-05-06T21:02:12.320Z,101757.97
2023-05-06T21:04:39.833Z,101756.91
2023-05-06T21:07:07.402Z,101766.50
2023-05-06T21:09:35.035Z,101760.88
2023-05-06T21:12:02.417Z,101760.09
2023-05-06T21:14:29.841Z,101762.00
2023-05-06T21:16:57.310Z,101763.41
2023-05-06T21:19:26.127Z,101770.63
2023-05-06T21:21:53.616Z,101770.00
2023-05-06T21:24:21.097Z,101754.78
2023-05-06T21:26:48.601Z,101749.34
2023-05-06T21:29:16.094Z,101760.88
2023-05-06T21:31:43.592Z,101769.38
2023-05-06T21:34:11.035Z,101761.38
2023-05-06T21:36:40.019Z,101754.88
2023-05-06T21:39:10.648Z,101760.34
2023-05-06T21:41:38.253Z,101762.59
2023-05-06T21:44:07.076Z,101761.16
2023-05-06T21:46:35.068Z,101759.72
2023-05-06T21:49:02.637Z,101754.47
2023-05-06T21:51:33.187Z,101760.13
2023-05-06T21:54:01.913Z,101759.31
2023-05-06T21:56:29.661Z,101766.19
2023-05-06T21:58:57.175Z,101774.28
2023-05-06T22:01:26.094Z,101772.09
2023-05-06T22:03:54.219Z,101765.41
2023-05-06T22:06:22.089Z,101763.28
2023-05-06T22:08:49.541Z,101772.03
2023-05-06T22:11:18.374Z,101770.53
2023-05-06T22:13:45.824Z,101769.44
2023-05-06T22:16:13.319Z,101769.16
2023-05-06T22:18:41.382Z,101770.63
2023-05-06T22:21:09.712Z,101768.50
2023-05-06T22:23:37.722Z,101765.44
2023-05-06T22:26:05.270Z,101771.78
2023-05-06T22:28:34.092Z,101774.53
2023-05-06T22:31:01.645Z,101769.59
2023-05-06T22:33:29.074Z,101770.81
2023-05-06T22:35:56.491Z,101763.59
2023-05-06T22:38:23.955Z,101770.22
2023-05-06T22:40:51.517Z,101762.25
2023-05-06T22:43:18.915Z,101776.75
2023-05-06T22:45:47.715Z,101773.97
2023-05-06T22:48:15.122Z,101769.81
2023-05-06T22:50:42.497Z,101782.66
2023-05-06T22:53:14.985Z,101778.31
2023-05-06T22:55:43.123Z,101777.19
2023-05-06T22:58:10.533Z,101782.75
2023-05-06T23:00:38.047Z,101774.81
2023-05-06T23:03:06.834Z,101779.44
2023-05-06T23:05:34.332Z,101788.97
2023-05-06T23:08:01.760Z,101784.31
2023-05-06T23:10:29.179Z,101797.41
2023-05-06T23:12:56.683Z,101783.28
2023-05-06T23:15:24.100Z,101787.38
2023-05-06T23:17:51.533Z,101786.56
2023-05-06T23:20:20.548Z,101781.69
2023-05-06T23:22:48.083Z,101790.19
2023-05-06T23:25:15.695Z,101792.09
2023-05-06T23:27:43.908Z,101782.09
2023-05-06T23:30:12.448Z,101789.81
2023-05-06T23:32:39.911Z,101787.59
2023-05-06T23:35:08.217Z,101778.44
2023-05-06T23:37:37.151Z,101787.91
2023-05-06T23:40:05.086Z,101782.59
2023-05-06T23:42:32.465Z,101787.25
2023-05-06T23:45:00.860Z,101782.16
2023-05-06T23:47:28.339Z,101790.81
2023-05-06T23:49:55.778Z,101786.75
2023-05-06T23:52:23.215Z,101786.31
2023-05-06T23:54:51.982Z,101782.28
2023-05-06T23:57:19.463Z,101789.53
2023-05-06T23:59:46.838Z,101783.22
